Time;durP1;ratioP1;P1;durP2;ratioP2;P2;SDS_P1;SDS_P2;PMS_P1;PMS_P2;Temp;Humidity;BMP_temperature;BMP_pressure;BME280_temperature;BME280_humidity;BME280_pressure;Samples;Min_cycle;Max_cycle;Signal;HPM_P1;HPM_P2
2022/09/13 00:00:50;;;;;;;13.75;11.85;;;18.90;99.90;;;;;;4977006;28;20046;-73
2022/09/13 00:03:17;;;;;;;14.98;11.73;;;18.90;99.90;;;;;;4977228;28;20042;-73
2022/09/13 00:05:42;;;;;;;15.77;12.25;;;18.80;99.90;;;;;;4977247;28;20096;-73
2022/09/13 00:08:08;;;;;;;13.70;12.18;;;18.90;99.90;;;;;;4976822;28;20041;-73
2022/09/13 00:10:36;;;;;;;17.52;13.82;;;18.90;99.90;;;;;;4976886;28;20042;-73
2022/09/13 00:13:02;;;;;;;15.43;13.32;;;18.80;99.90;;;;;;4976985;28;20050;-73
2022/09/13 00:15:28;;;;;;;16.85;12.75;;;18.80;99.90;;;;;;4976808;28;20038;-73
2022/09/13 00:17:54;;;;;;;16.33;13.57;;;18.80;99.90;;;;;;4976750;28;20038;-73
2022/09/13 00:20:20;;;;;;;15.95;13.00;;;18.70;99.90;;;;;;4976982;28;20078;-73
2022/09/13 00:22:46;;;;;;;13.60;12.20;;;18.70;99.90;;;;;;4976940;28;20525;-73
2022/09/13 00:25:11;;;;;;;14.35;12.05;;;18.70;99.90;;;;;;4976953;28;20580;-73
2022/09/13 00:27:37;;;;;;;13.20;11.80;;;18.60;99.90;;;;;;4976820;28;20049;-73
2022/09/13 00:30:04;;;;;;;14.85;12.05;;;18.70;99.90;;;;;;4976874;28;20431;-73
2022/09/13 00:32:30;;;;;;;14.13;12.30;;;18.60;99.90;;;;;;4976537;28;20050;-73
2022/09/13 00:34:57;;;;;;;15.07;12.00;;;18.70;99.90;;;;;;4976435;28;20053;-73
2022/09/13 00:37:22;;;;;;;13.35;11.25;;;18.60;99.90;;;;;;4976262;28;20052;-73
2022/09/13 00:39:48;;;;;;;15.40;11.77;;;18.70;99.90;;;;;;4976421;28;20034;-73
2022/09/13 00:42:13;;;;;;;16.48;12.38;;;18.70;99.90;;;;;;4976386;28;20046;-73
2022/09/13 00:44:56;;;;;;;13.82;11.60;;;18.60;99.90;;;;;;4976374;28;20109;-73
2022/09/13 00:47:35;;;;;;;13.13;11.73;;;18.70;99.90;;;;;;4976537;28;20064;-73
2022/09/13 00:50:10;;;;;;;13.85;12.10;;;18.70;99.90;;;;;;4976595;28;20057;-73
2022/09/13 00:52:38;;;;;;;13.65;12.25;;;18.70;99.90;;;;;;4976283;28;20046;-73
2022/09/13 00:55:11;;;;;;;14.90;12.52;;;18.70;99.90;;;;;;4976247;28;20046;-73
2022/09/13 00:57:37;;;;;;;;;;;18.60;99.90;;;;;;4976659;28;20042;-73
2022/09/13 01:00:11;;;;;;;14.43;12.18;;;18.50;99.90;;;;;;4976163;28;19924;-73
2022/09/13 01:02:40;;;;;;;14.35;12.52;;;18.50;99.90;;;;;;4976466;28;20046;-73
2022/09/13 01:05:07;;;;;;;16.63;13.85;;;18.60;99.90;;;;;;4976393;28;20058;-73
2022/09/13 01:07:33;;;;;;;14.15;12.70;;;18.60;99.90;;;;;;4976094;28;20057;-73
2022/09/13 01:10:01;;;;;;;14.98;12.48;;;18.60;99.90;;;;;;4976358;28;20137;-73
2022/09/13 01:12:52;;;;;;;15.00;12.48;;;18.60;99.90;;;;;;4976077;28;20057;-73
2022/09/13 01:15:18;;;;;;;15.82;13.75;;;18.60;99.90;;;;;;4976123;28;20078;-73
2022/09/13 01:17:44;;;;;;;14.57;12.93;;;18.60;99.90;;;;;;4975976;28;20074;-73
2022/09/13 01:20:11;;;;;;;16.50;13.23;;;18.60;99.90;;;;;;4976262;28;20434;-73
2022/09/13 01:22:55;;;;;;;14.88;13.38;;;18.60;99.90;;;;;;4976379;28;20478;-73
2022/09/13 01:25:39;;;;;;;15.23;13.45;;;18.60;99.90;;;;;;4978806;28;20629;-73
2022/09/13 01:28:29;;;;;;;17.90;14.85;;;18.50;99.90;;;;;;4979811;28;20053;-73
2022/09/13 01:31:11;;;;;;;19.77;15.88;;;18.60;99.90;;;;;;4980509;28;20117;-73
2022/09/13 01:33:48;;;;;;;17.92;14.90;;;18.60;99.90;;;;;;4979764;28;20046;-73
2022/09/13 01:36:55;;;;;;;17.08;15.20;;;18.50;99.90;;;;;;4979704;28;20049;-73
2022/09/13 01:39:37;;;;;;;18.23;15.75;;;18.60;99.90;;;;;;4963649;28;20210;-73
2022/09/13 01:42:28;;;;;;;18.67;15.85;;;18.50;99.90;;;;;;4979652;28;20048;-73
2022/09/13 01:45:22;;;;;;;19.40;16.05;;;18.50;99.90;;;;;;4979569;28;20046;-73
2022/09/13 01:47:53;;;;;;;;;;;18.50;99.90;;;;;;4979899;28;20078;-73
2022/09/13 01:50:37;;;;;;;19.85;16.98;;;18.40;99.90;;;;;;4979409;28;19918;-73
2022/09/13 01:53:33;;;;;;;20.17;16.90;;;18.40;99.90;;;;;;4979311;28;20045;-73
2022/09/13 01:56:19;;;;;;;20.63;16.83;;;18.50;99.90;;;;;;4979434;28;20050;-73
2022/09/13 01:58:54;;;;;;;20.15;17.00;;;18.50;99.90;;;;;;4979265;28;20117;-73
2022/09/13 02:01:28;;;;;;;19.65;17.45;;;18.40;99.90;;;;;;4979506;28;20046;-73
2022/09/13 02:03:56;;;;;;;19.98;17.30;;;18.50;99.90;;;;;;4979539;28;20506;-73
2022/09/13 02:06:46;;;;;;;22.60;18.92;;;18.50;99.90;;;;;;4979076;28;20567;-73
2022/09/13 02:09:20;;;;;;;21.35;18.48;;;18.50;99.90;;;;;;4979114;28;20089;-73
2022/09/13 02:11:53;;;;;;;24.20;19.20;;;18.40;99.90;;;;;;4979431;28;20566;-73
2022/09/13 02:14:32;;;;;;;;;;;18.40;99.90;;;;;;4979448;28;20400;-73
2022/09/13 02:17:06;;;;;;;23.40;19.55;;;18.30;99.90;;;;;;4978948;28;19924;-73
2022/09/13 02:19:37;;;;;;;23.15;19.65;;;18.30;99.90;;;;;;4978995;28;20057;-73
2022/09/13 02:22:06;;;;;;;23.35;20.55;;;18.30;99.90;;;;;;4978928;28;20549;-73
2022/09/13 02:24:35;;;;;;;23.35;20.13;;;18.40;99.90;;;;;;4978854;28;20046;-73
2022/09/13 02:27:08;;;;;;;21.98;18.90;;;18.40;99.90;;;;;;4978978;28;20077;-73
2022/09/13 02:29:38;;;;;;;24.35;20.33;;;18.40;99.90;;;;;;4979013;28;20049;-73
2022/09/13 02:32:10;;;;;;;27.88;21.33;;;18.40;99.90;;;;;;4978686;28;20049;-73
2022/09/13 02:34:41;;;;;;;24.97;20.20;;;18.40;99.90;;;;;;4978581;28;20038;-73
2022/09/13 02:37:09;;;;;;;25.38;20.38;;;18.40;99.90;;;;;;4977405;28;20039;-73
2022/09/13 02:39:40;;;;;;;22.42;19.33;;;18.40;99.90;;;;;;4978591;28;20043;-73
2022/09/13 02:42:24;;;;;;;23.65;19.55;;;18.40;99.90;;;;;;4978708;28;20483;-73
2022/09/13 02:44:53;;;;;;;25.23;19.95;;;18.40;99.90;;;;;;4978788;28;20101;-73
2022/09/13 02:47:38;;;;;;;24.40;20.35;;;18.40;99.90;;;;;;4978418;28;20128;-73
2022/09/13 02:50:08;;;;;;;24.50;20.52;;;18.50;99.90;;;;;;4978415;28;20049;-73
2022/09/13 02:52:54;;;;;;;24.52;21.02;;;18.40;99.90;;;;;;4978324;28;20129;-73
2022/09/13 02:55:47;;;;;;;25.50;20.08;;;18.50;99.90;;;;;;4978277;28;20042;-73
2022/09/13 02:58:29;;;;;;;23.85;19.80;;;18.50;99.90;;;;;;4978268;28;20042;-73
2022/09/13 03:00:55;;;;;;;24.52;21.52;;;18.40;99.90;;;;;;4978237;28;20045;-73
2022/09/13 03:03:21;;;;;;;26.67;20.45;;;18.40;99.90;;;;;;4978172;28;20292;-73
2022/09/13 03:05:46;;;;;;;26.25;20.90;;;18.40;99.90;;;;;;4978154;28;20073;-73
2022/09/13 03:08:14;;;;;;;23.08;18.92;;;18.40;99.90;;;;;;4962256;28;20132;-73
2022/09/13 03:10:58;;;;;;;26.48;20.90;;;18.40;99.90;;;;;;4978087;28;20122;-73
2022/09/13 03:13:57;;;;;;;20.80;17.77;;;18.40;99.90;;;;;;4995619;28;20068;-73
2022/09/13 03:16:45;;;;;;;19.75;17.52;;;18.40;99.90;;;;;;4995310;28;20039;-73
2022/09/13 03:19:29;;;;;;;22.52;18.65;;;18.40;99.90;;;;;;4977855;28;20411;-73
2022/09/13 03:22:05;;;;;;;22.05;16.95;;;18.40;99.90;;;;;;4977818;28;20073;-73
2022/09/13 03:24:59;;;;;;;19.85;16.55;;;18.30;99.90;;;;;;4977808;28;20507;-73
2022/09/13 03:27:36;;;;;;;22.58;17.30;;;18.40;99.90;;;;;;4977640;28;20078;-73
2022/09/13 03:30:05;;;;;;;18.98;15.98;;;18.40;99.90;;;;;;4977648;28;20510;-73
2022/09/13 03:32:33;;;;;;;18.40;15.52;;;18.40;99.90;;;;;;4977560;28;20134;-73
2022/09/13 03:35:30;;;;;;;19.88;16.00;;;18.30;99.90;;;;;;4977440;28;20521;-73
2022/09/13 03:38:12;;;;;;;17.98;14.93;;;18.40;99.90;;;;;;4977244;28;20050;-73
2022/09/13 03:40:51;;;;;;;16.92;14.10;;;18.30;99.90;;;;;;4961646;28;20502;-73
2022/09/13 03:43:25;;;;;;;16.10;13.40;;;18.40;99.90;;;;;;4977390;28;20034;-73
2022/09/13 03:45:57;;;;;;;19.50;14.70;;;18.30;99.90;;;;;;4977334;28;20403;-73
2022/09/13 03:48:24;;;;;;;17.27;13.88;;;18.40;99.90;;;;;;4977043;28;20561;-73
2022/09/13 03:50:49;;;;;;;16.80;14.13;;;18.30;99.90;;;;;;4977260;28;20566;-73
2022/09/13 03:53:21;;;;;;;21.13;13.98;;;18.30;99.90;;;;;;4977171;28;20078;-73
2022/09/13 03:55:47;;;;;;;18.03;14.47;;;18.30;99.90;;;;;;4977216;28;20049;-73
2022/09/13 03:58:15;;;;;;;17.13;14.13;;;18.30;99.90;;;;;;4977344;28;20038;-73
2022/09/13 04:00:40;;;;;;;14.13;12.38;;;18.30;99.90;;;;;;4977405;28;20042;-73
2022/09/13 04:03:08;;;;;;;15.38;12.40;;;18.30;99.90;;;;;;4977085;28;20469;-73
2022/09/13 04:05:34;;;;;;;15.05;12.35;;;18.30;99.90;;;;;;4976909;28;20042;-73
2022/09/13 04:08:00;;;;;;;13.57;11.27;;;18.30;99.90;;;;;;4976867;28;20092;-73
2022/09/13 04:10:27;;;;;;;14.70;11.55;;;18.40;99.90;;;;;;4977154;28;20150;-73
2022/09/13 04:12:53;;;;;;;13.95;11.50;;;18.40;99.90;;;;;;4977074;28;20038;-73
2022/09/13 04:15:19;;;;;;;13.23;10.88;;;18.40;99.90;;;;;;4976811;28;20076;-73
2022/09/13 04:17:44;;;;;;;13.25;11.55;;;18.40;99.90;;;;;;4976736;28;20070;-73
2022/09/13 04:20:10;;;;;;;12.10;10.65;;;18.40;99.90;;;;;;4976776;28;20093;-73
2022/09/13 04:22:36;;;;;;;12.30;10.23;;;18.40;99.90;;;;;;4976947;28;20038;-73
2022/09/13 04:25:02;;;;;;;12.80;10.38;;;18.40;99.90;;;;;;4976715;28;20056;-73
2022/09/13 04:27:27;;;;;;;13.40;11.13;;;18.40;99.90;;;;;;4976592;28;20096;-73
2022/09/13 04:29:53;;;;;;;15.27;11.45;;;18.40;99.90;;;;;;4976648;28;20038;-73
2022/09/13 04:32:18;;;;;;;15.57;10.15;;;18.30;99.90;;;;;;4977646;28;20077;-73
2022/09/13 04:34:46;;;;;;;16.27;11.55;;;18.30;99.90;;;;;;4976566;28;20446;-73
2022/09/13 04:37:12;;;;;;;13.57;11.02;;;18.30;99.90;;;;;;4993911;28;20096;-73
2022/09/13 04:39:37;;;;;;;11.65;9.95;;;18.30;99.90;;;;;;4976423;28;20121;-73
2022/09/13 04:42:03;;;;;;;16.00;10.85;;;18.30;99.90;;;;;;4976727;28;20045;-73
2022/09/13 04:44:30;;;;;;;13.52;10.10;;;18.30;99.90;;;;;;4960566;28;20515;-72
2022/09/13 04:46:56;;;;;;;15.40;10.70;;;18.40;99.90;;;;;;4976599;28;20085;-72
2022/09/13 04:49:21;;;;;;;12.57;10.13;;;18.40;99.90;;;;;;4976387;28;20542;-73
2022/09/13 04:51:47;;;;;;;12.32;9.93;;;18.40;99.90;;;;;;4976615;28;20050;-73
2022/09/13 04:54:13;;;;;;;13.32;10.02;;;18.50;99.90;;;;;;4976408;28;20498;-73
2022/09/13 04:56:39;;;;;;;14.35;10.40;;;18.50;99.90;;;;;;4976205;28;20096;-73
2022/09/13 04:59:05;;;;;;;14.27;11.10;;;18.40;99.90;;;;;;4975593;28;20046;-73
2022/09/13 05:01:31;;;;;;;13.98;10.55;;;18.50;99.90;;;;;;4976217;28;20042;-73
2022/09/13 05:03:57;;;;;;;11.98;9.80;;;18.50;99.90;;;;;;4976252;28;20057;-73
2022/09/13 05:06:22;;;;;;;13.00;10.02;;;18.50;99.90;;;;;;4993523;28;20073;-73
2022/09/13 05:08:54;;;;;;;15.32;10.13;;;18.50;99.90;;;;;;4976152;28;20059;-73
2022/09/13 05:11:21;;;;;;;11.70;9.13;;;18.50;99.90;;;;;;4976148;28;20038;-73
2022/09/13 05:13:51;;;;;;;14.40;9.85;;;18.50;99.90;;;;;;4976092;28;20078;-73
2022/09/13 05:16:17;;;;;;;12.45;9.05;;;18.50;99.90;;;;;;4976397;28;20034;-73
2022/09/13 05:18:43;;;;;;;14.73;8.93;;;18.50;99.90;;;;;;4976006;28;20093;-73
2022/09/13 05:21:08;;;;;;;11.68;8.85;;;18.50;99.90;;;;;;4976281;28;20125;-73
2022/09/13 05:23:34;;;;;;;15.52;9.23;;;18.50;99.90;;;;;;4976279;28;20125;-73
2022/09/13 05:26:03;;;;;;;10.98;9.10;;;18.50;99.90;;;;;;4975936;28;20407;-73
2022/09/13 05:28:30;;;;;;;9.82;8.27;;;18.50;99.90;;;;;;4975873;28;20495;-73
2022/09/13 05:30:59;;;;;;;10.23;7.97;;;18.50;99.90;;;;;;4975942;28;20560;-73
2022/09/13 05:33:30;;;;;;;10.55;8.18;;;18.50;99.90;;;;;;4976067;28;20054;-73
2022/09/13 05:35:56;;;;;;;10.65;7.43;;;18.50;99.90;;;;;;4976171;28;20038;-73
2022/09/13 05:38:22;;;;;;;9.35;7.60;;;18.50;99.90;;;;;;4975734;28;20414;-73
2022/09/13 05:40:56;;;;;;;10.15;6.97;;;18.50;99.90;;;;;;4976095;28;20092;-73
2022/09/13 05:43:27;;;;;;;10.38;7.63;;;18.50;99.90;;;;;;4975859;28;20053;-73
2022/09/13 05:46:11;;;;;;;11.10;7.53;;;18.50;99.90;;;;;;4976102;28;20146;-73
2022/09/13 05:48:38;;;;;;;9.30;6.80;;;18.60;99.90;;;;;;4975775;28;20042;-73
2022/09/13 05:51:09;;;;;;;11.27;7.85;;;18.50;99.90;;;;;;4976006;28;20049;-73
2022/09/13 05:53:38;;;;;;;9.68;7.45;;;18.50;99.90;;;;;;4975695;28;20077;-73
2022/09/13 05:56:07;;;;;;;11.30;5.53;;;18.50;99.90;;;;;;4975757;28;20042;-73
2022/09/13 05:58:34;;;;;;;9.68;5.78;;;18.50;99.90;;;;;;4975697;28;20565;-73
2022/09/13 06:01:00;;;;;;;8.90;5.63;;;18.50;99.90;;;;;;4975912;28;20503;-72
2022/09/13 06:03:26;;;;;;;10.23;5.50;;;18.50;99.90;;;;;;4975739;28;20050;-72
2022/09/13 06:05:56;;;;;;;7.30;4.25;;;18.40;99.90;;;;;;4975843;28;20153;-72
2022/09/13 06:08:23;;;;;;;6.30;3.53;;;18.40;99.90;;;;;;4975515;28;20039;-73
2022/09/13 06:10:58;;;;;;;5.13;3.75;;;18.40;99.90;;;;;;4994685;28;20431;-73
2022/09/13 06:13:25;;;;;;;9.77;3.28;;;18.40;99.90;;;;;;4978991;28;20046;-73
2022/09/13 06:15:51;;;;;;;6.22;3.00;;;18.40;99.90;;;;;;4979253;28;20041;-72
2022/09/13 06:18:18;;;;;;;6.80;2.50;;;18.40;99.90;;;;;;4979180;28;20073;-72
2022/09/13 06:20:44;;;;;;;6.50;3.13;;;18.40;99.90;;;;;;4979162;28;20042;-72
2022/09/13 06:23:09;;;;;;;8.77;2.90;;;18.40;99.90;;;;;;4978868;28;20042;-72
2022/09/13 06:25:35;;;;;;;5.43;2.45;;;18.40;99.90;;;;;;4978915;28;20049;-72
2022/09/13 06:28:00;;;;;;;4.80;2.20;;;18.30;99.90;;;;;;4978775;28;20041;-72
2022/09/13 06:30:26;;;;;;;4.78;2.17;;;18.40;99.90;;;;;;4978892;28;20058;-72
2022/09/13 06:32:54;;;;;;;4.78;2.25;;;18.30;99.90;;;;;;4978833;28;20046;-72
2022/09/13 06:35:20;;;;;;;5.80;2.22;;;18.30;99.90;;;;;;4978721;28;20093;-72
2022/09/13 06:37:45;;;;;;;6.15;2.22;;;18.30;99.90;;;;;;4978597;28;20446;-72
2022/09/13 06:40:12;;;;;;;8.95;2.20;;;18.20;99.90;;;;;;4978704;28;20125;-72
2022/09/13 06:42:38;;;;;;;7.97;2.85;;;18.20;99.90;;;;;;4978594;28;20053;-73
2022/09/13 06:45:05;;;;;;;5.88;1.80;;;18.20;99.90;;;;;;4978877;28;20458;-73
2022/09/13 06:47:31;;;;;;;5.45;1.92;;;18.20;99.90;;;;;;4978776;28;20050;-72
2022/09/13 06:49:57;;;;;;;6.00;2.08;;;18.20;99.90;;;;;;4978729;28;20116;-73
2022/09/13 06:52:23;;;;;;;6.13;2.30;;;18.20;99.90;;;;;;4978700;28;20446;-73
2022/09/13 06:54:49;;;;;;;5.65;2.10;;;18.20;99.90;;;;;;4978259;28;20415;-72
2022/09/13 06:57:14;;;;;;;6.07;2.05;;;18.30;99.90;;;;;;4978363;28;20104;-72
2022/09/13 06:59:40;;;;;;;5.70;2.10;;;18.30;99.90;;;;;;4978538;28;20038;-72
2022/09/13 07:02:06;;;;;;;6.63;1.88;;;18.30;99.90;;;;;;4978296;28;20380;-72
2022/09/13 07:04:31;;;;;;;10.38;2.25;;;18.30;99.90;;;;;;4978403;28;20042;-72
2022/09/13 07:06:58;;;;;;;4.90;2.08;;;18.30;99.90;;;;;;4978166;28;20057;-72
2022/09/13 07:09:24;;;;;;;4.13;1.70;;;18.30;99.90;;;;;;4978084;28;20053;-72
2022/09/13 07:11:52;;;;;;;7.07;1.92;;;18.40;99.90;;;;;;4978067;28;20042;-72
2022/09/13 07:14:20;;;;;;;6.50;2.08;;;18.40;99.90;;;;;;4995399;28;20058;-72
2022/09/13 07:16:46;;;;;;;3.92;1.67;;;18.40;99.90;;;;;;4977868;28;20104;-72
2022/09/13 07:19:17;;;;;;;8.05;1.88;;;18.50;99.90;;;;;;4977995;28;20050;-72
2022/09/13 07:21:43;;;;;;;5.07;1.73;;;18.60;99.90;;;;;;4977311;28;20480;-72
2022/09/13 07:24:09;;;;;;;4.00;1.50;;;18.60;99.90;;;;;;4977873;28;20073;-72
2022/09/13 07:26:35;;;;;;;4.18;1.80;;;18.70;99.90;;;;;;4977733;28;20038;-72
2022/09/13 07:29:05;;;;;;;6.55;1.98;;;18.70;99.90;;;;;;4977704;28;20042;-72
2022/09/13 07:31:33;;;;;;;8.02;1.90;;;18.80;99.90;;;;;;4977775;28;20057;-72
2022/09/13 07:34:02;;;;;;;5.82;2.00;;;18.80;99.90;;;;;;4977761;28;20051;-72
2022/09/13 07:36:29;;;;;;;6.18;2.00;;;18.90;99.90;;;;;;4977520;28;20486;-72
2022/09/13 07:38:56;;;;;;;6.82;1.73;;;18.90;99.90;;;;;;4977751;28;20042;-72
2022/09/13 07:41:25;;;;;;;10.07;1.83;;;19.00;99.90;;;;;;4977551;28;20484;-72
2022/09/13 07:43:52;;;;;;;7.40;2.08;;;19.00;99.90;;;;;;4977943;28;20050;-72
2022/09/13 07:46:23;;;;;;;8.63;1.60;;;19.00;99.90;;;;;;4977494;28;20054;-72
2022/09/13 07:48:51;;;;;;;7.35;1.38;;;19.10;99.90;;;;;;4977659;28;20038;-72
2022/09/13 07:51:19;;;;;;;8.00;1.20;;;19.10;99.90;;;;;;4977352;28;20046;-72
2022/09/13 07:53:47;;;;;;;7.50;1.42;;;19.20;99.90;;;;;;4977278;28;20038;-72
2022/09/13 07:56:15;;;;;;;3.72;1.00;;;19.30;99.90;;;;;;4977245;28;20053;-72
2022/09/13 07:58:42;;;;;;;4.60;0.90;;;19.40;99.90;;;;;;4977109;28;20042;-72
2022/09/13 08:01:12;;;;;;;4.90;0.85;;;19.50;99.90;;;;;;4977445;28;20042;-72
2022/09/13 08:03:38;;;;;;;11.05;1.20;;;19.50;99.90;;;;;;4977392;28;20050;-72
2022/09/13 08:06:05;;;;;;;10.32;1.13;;;19.40;99.90;;;;;;4977087;28;20474;-72
2022/09/13 08:08:31;;;;;;;7.18;0.90;;;19.40;99.90;;;;;;4977252;28;20438;-72
2022/09/13 08:10:58;;;;;;;4.05;0.73;;;19.40;99.90;;;;;;4977040;28;20054;-72
2022/09/13 08:13:23;;;;;;;6.78;1.52;;;19.40;99.90;;;;;;4976804;28;20042;-72
2022/09/13 08:15:49;;;;;;;4.40;0.80;;;19.30;99.90;;;;;;4976926;28;20161;-72
2022/09/13 08:18:16;;;;;;;4.38;0.77;;;19.30;99.90;;;;;;4976825;28;20047;-72
2022/09/13 08:20:42;;;;;;;6.03;1.10;;;19.40;99.90;;;;;;4976852;28;20495;-71
2022/09/13 08:23:09;;;;;;;4.25;0.60;;;19.40;99.90;;;;;;4977024;28;20049;-71
2022/09/13 08:25:35;;;;;;;4.20;0.77;;;19.50;99.90;;;;;;4976765;28;20050;-72
2022/09/13 08:28:12;;;;;;;3.20;0.50;;;19.50;99.90;;;;;;4976641;28;20077;-72
2022/09/13 08:30:37;;;;;;;4.68;1.17;;;19.70;99.90;;;;;;4976696;28;20041;-72
2022/09/13 08:33:04;;;;;;;4.78;0.93;;;20.00;99.90;;;;;;4976332;28;20050;-72
2022/09/13 08:35:31;;;;;;;2.67;0.85;;;20.30;99.90;;;;;;4976055;28;20054;-72
2022/09/13 08:37:57;;;;;;;4.18;0.60;;;20.60;99.90;;;;;;4994007;28;20050;-72
2022/09/13 08:40:25;;;;;;;4.40;0.70;;;21.00;99.90;;;;;;4976587;28;20042;-72
2022/09/13 08:43:13;;;;;;;2.95;0.52;;;21.30;99.90;;;;;;4976469;28;20038;-72
2022/09/13 08:45:39;;;;;;;3.60;0.75;;;21.70;99.90;;;;;;4976526;28;20477;-72
2022/09/13 08:48:14;;;;;;;6.03;0.50;;;21.70;99.90;;;;;;4976443;28;20411;-72
2022/09/13 08:50:42;;;;;;;6.55;0.70;;;21.60;99.90;;;;;;4976697;28;20521;-72
2022/09/13 08:53:23;;;;;;;8.35;0.75;;;21.50;99.90;;;;;;4976442;28;20053;-72
2022/09/13 08:56:10;;;;;;;6.20;0.75;;;21.40;99.90;;;;;;4976681;28;20100;-72
2022/09/13 08:59:05;;;;;;;2.25;0.50;;;21.50;99.90;;;;;;4976559;28;20491;-72
2022/09/13 09:01:37;;;;;;;5.30;0.70;;;21.50;99.90;;;;;;4976643;28;20073;-72
2022/09/13 09:04:27;;;;;;;2.88;0.40;;;21.90;99.90;;;;;;4976559;28;20108;-72
2022/09/13 09:07:00;;;;;;;4.30;0.65;;;21.90;99.90;;;;;;4960133;28;20467;-72
2022/09/13 09:09:26;;;;;;;;;;;22.20;99.90;;;;;;4994134;28;20129;-72
2022/09/13 09:12:30;;;;;;;4.28;0.60;;;22.60;99.90;;;;;;4976215;28;19924;-72
2022/09/13 09:15:12;;;;;;;4.55;0.52;;;22.90;99.90;;;;;;4961229;28;20642;-72
2022/09/13 09:17:46;;;;;;;3.28;0.80;;;23.00;99.90;;;;;;4976438;28;20046;-72
2022/09/13 09:20:18;;;;;;;3.30;0.40;;;22.70;99.90;;;;;;4993834;28;20510;-72
2022/09/13 09:22:45;;;;;;;3.97;0.57;;;22.70;99.90;;;;;;4976149;28;20050;-72
2022/09/13 09:25:11;;;;;;;5.38;0.77;;;22.90;99.90;;;;;;4976077;28;20046;-72
2022/09/13 09:27:37;;;;;;;4.40;0.65;;;23.20;99.90;;;;;;4976268;28;20042;-72
2022/09/13 09:30:03;;;;;;;6.50;0.73;;;23.60;99.90;;;;;;4976053;28;20411;-72
2022/09/13 09:32:46;;;;;;;3.80;0.45;;;23.90;99.90;;;;;;4976031;28;20053;-72
2022/09/13 09:35:40;;;;;;;4.30;0.70;;;24.20;99.90;;;;;;4976007;28;20487;-72
2022/09/13 09:38:26;;;;;;;5.22;0.63;;;24.30;94.70;;;;;;4976184;28;20077;-72
2022/09/13 09:40:52;;;;;;;4.00;0.60;;;24.60;97.50;;;;;;4976244;28;20042;-71
2022/09/13 09:43:32;;;;;;;5.47;0.80;;;24.70;96.90;;;;;;4975908;28;20404;-71
2022/09/13 09:46:01;;;;;;;4.03;0.60;;;25.10;96.20;;;;;;4978239;28;20499;-71
2022/09/13 09:48:34;;;;;;;5.45;0.55;;;24.80;92.30;;;;;;4979569;28;20501;-71
2022/09/13 09:51:03;;;;;;;4.60;0.57;;;24.90;93.20;;;;;;4979528;28;20590;-71
2022/09/13 09:53:43;;;;;;;3.22;0.60;;;25.10;91.70;;;;;;4996896;28;20038;-71
2022/09/13 09:56:31;;;;;;;5.38;0.70;;;25.40;87.60;;;;;;4979759;28;20503;-71
2022/09/13 09:58:57;;;;;;;3.85;0.63;;;25.70;88.60;;;;;;4979419;28;20050;-72
2022/09/13 10:01:31;;;;;;;4.97;1.00;;;25.90;86.40;;;;;;4996767;28;20034;-72
2022/09/13 10:04:17;;;;;;;3.60;0.63;;;26.10;84.00;;;;;;4997063;28;20136;-72
2022/09/13 10:06:45;;;;;;;4.70;0.73;;;26.20;85.80;;;;;;4979463;28;20046;-72
2022/09/13 10:09:13;;;;;;;6.43;1.63;;;26.50;84.80;;;;;;4979261;28;20050;-72
2022/09/13 10:11:42;;;;;;;3.85;0.75;;;26.20;80.10;;;;;;4979248;28;20046;-72
2022/09/13 10:14:26;;;;;;;5.85;0.70;;;26.10;80.30;;;;;;4979131;28;20038;-72
2022/09/13 10:17:20;;;;;;;6.35;0.93;;;26.10;76.50;;;;;;4979239;28;20042;-72
2022/09/13 10:20:11;;;;;;;9.55;0.82;;;26.20;76.00;;;;;;4978988;28;20046;-73
2022/09/13 10:22:37;;;;;;;5.82;0.63;;;26.40;76.40;;;;;;4979215;28;20046;-73
2022/09/13 10:25:12;;;;;;;3.38;0.60;;;26.40;75.90;;;;;;4978966;28;20415;-73
2022/09/13 10:27:44;;;;;;;2.88;0.60;;;26.50;74.60;;;;;;4978840;28;20061;-73
2022/09/13 10:30:33;;;;;;;6.65;0.80;;;26.70;71.60;;;;;;4978915;28;20093;-74
2022/09/13 10:32:59;;;;;;;4.10;0.57;;;26.90;68.80;;;;;;4966216;28;20057;-72
2022/09/13 10:35:25;;;;;;;6.40;0.75;;;27.00;70.40;;;;;;4978713;28;20042;-72
2022/09/13 10:37:51;;;;;;;2.70;0.43;;;26.80;66.40;;;;;;4978821;28;20069;-72
2022/09/13 10:40:32;;;;;;;4.95;0.52;;;26.60;66.60;;;;;;4978910;28;20514;-72
2022/09/13 10:43:01;;;;;;;4.38;0.40;;;26.50;65.20;;;;;;4978682;28;20085;-72
2022/09/13 10:45:29;;;;;;;2.15;0.57;;;26.80;65.00;;;;;;4978607;28;20454;-72
2022/09/13 10:48:05;;;;;;;6.57;0.85;;;27.00;62.90;;;;;;4978487;28;20466;-73
2022/09/13 10:50:32;;;;;;;3.88;0.70;;;27.10;62.90;;;;;;4978573;28;20046;-73
2022/09/13 10:52:58;;;;;;;3.55;0.55;;;27.40;63.80;;;;;;4978727;28;20046;-73
2022/09/13 10:55:39;;;;;;;7.75;0.90;;;27.50;62.20;;;;;;4978388;28;20550;-73
2022/09/13 10:58:05;;;;;;;3.78;0.80;;;27.30;60.60;;;;;;4977567;28;20410;-74
2022/09/13 11:01:23;;;;;;;6.07;1.13;;;26.90;62.40;;;;;;4978356;28;20038;-73
2022/09/13 11:04:20;;;;;;;7.53;0.80;;;26.60;62.10;;;;;;4978211;28;20049;-72
2022/09/13 11:07:13;;;;;;;5.82;1.08;;;26.00;63.60;;;;;;4977827;28;20110;-73
2022/09/13 11:09:52;;;;;;;4.97;0.93;;;26.20;65.40;;;;;;4978439;28;20050;-72
2022/09/13 11:12:49;;;;;;;7.78;0.88;;;26.40;64.30;;;;;;4978104;28;20092;-73
2022/09/13 11:15:21;;;;;;;5.43;0.65;;;26.80;61.70;;;;;;4977983;28;20054;-73
2022/09/13 11:18:17;;;;;;;4.55;0.70;;;27.10;62.00;;;;;;4977929;28;20127;-73
2022/09/13 11:21:20;;;;;;;4.28;0.60;;;27.30;60.10;;;;;;4961895;28;20102;-72
2022/09/13 11:24:02;;;;;;;5.95;0.98;;;27.50;60.80;;;;;;4977876;28;20054;-72
2022/09/13 11:26:43;;;;;;;6.35;1.00;;;27.50;59.10;;;;;;4977829;28;20096;-72
2022/09/13 11:29:19;;;;;;;4.55;0.57;;;27.70;59.10;;;;;;4978121;28;20058;-72
2022/09/13 11:32:08;;;;;;;3.40;0.93;;;27.90;60.00;;;;;;4977694;28;20050;-72
2022/09/13 11:35:18;;;;;;;6.55;0.73;;;27.90;59.60;;;;;;4964661;28;20054;-73
2022/09/13 11:38:06;;;;;;;6.90;0.88;;;28.10;59.20;;;;;;4977581;28;20121;-73
2022/09/13 11:40:52;;;;;;;5.63;1.13;;;27.90;57.30;;;;;;4977528;28;20559;-73
2022/09/13 11:43:38;;;;;;;12.57;1.30;;;27.60;57.30;;;;;;4977482;28;20038;-73
2022/09/13 11:46:30;;;;;;;9.98;0.93;;;27.60;59.50;;;;;;4929450;28;20051;-73
2022/09/13 11:49:19;;;;;;;6.07;0.90;;;27.70;59.30;;;;;;4977388;28;20053;-73
2022/09/13 11:51:51;;;;;;;2.88;0.73;;;27.70;60.60;;;;;;4977325;28;20038;-73
2022/09/13 11:54:44;;;;;;;4.75;0.95;;;27.90;59.80;;;;;;4978188;28;20049;-73
2022/09/13 11:57:22;;;;;;;6.65;1.08;;;28.10;59.10;;;;;;4977119;28;20511;-73
2022/09/13 12:00:08;;;;;;;6.22;0.98;;;28.20;60.10;;;;;;4977251;28;20093;-73
2022/09/13 12:02:39;;;;;;;7.93;1.08;;;28.30;59.30;;;;;;4977167;28;20053;-73
2022/09/13 12:05:14;;;;;;;6.63;0.90;;;28.20;58.10;;;;;;4976980;28;20129;-73
2022/09/13 12:07:48;;;;;;;6.95;1.13;;;28.10;57.00;;;;;;4976826;28;20042;-73
2022/09/13 12:10:38;;;;;;;7.10;1.08;;;27.60;57.30;;;;;;4977585;28;20081;-73
2022/09/13 12:13:09;;;;;;;4.45;0.70;;;27.40;57.50;;;;;;4976892;28;20042;-73
2022/09/13 12:15:41;;;;;;;8.00;1.02;;;27.30;57.40;;;;;;4976811;28;20042;-73
2022/09/13 12:18:27;;;;;;;3.90;0.70;;;27.40;57.00;;;;;;4976769;28;20046;-73
2022/09/13 12:21:05;;;;;;;4.90;0.60;;;27.50;57.10;;;;;;4977096;28;20285;-73
2022/09/13 12:23:41;;;;;;;4.15;0.77;;;27.50;55.40;;;;;;4977117;28;20042;-73
2022/09/13 12:26:18;;;;;;;5.32;0.73;;;27.40;55.00;;;;;;4976884;28;20118;-73
2022/09/13 12:28:53;;;;;;;5.70;0.82;;;27.40;56.40;;;;;;4976680;28;20495;-73
2022/09/13 12:31:26;;;;;;;3.03;0.70;;;27.20;55.90;;;;;;4976773;28;20125;-73
2022/09/13 12:33:52;;;;;;;5.70;1.15;;;26.90;56.60;;;;;;4976863;28;20510;-73
2022/09/13 12:36:27;;;;;;;3.45;0.65;;;26.80;58.10;;;;;;4976676;28;20073;-73
2022/09/13 12:39:18;;;;;;;6.55;0.70;;;26.70;57.80;;;;;;4976844;28;20104;-73
2022/09/13 12:42:07;;;;;;;4.63;0.98;;;26.80;56.80;;;;;;4976518;28;20046;-72
2022/09/13 12:45:17;;;;;;;5.35;0.82;;;26.70;57.60;;;;;;4960721;28;20042;-72
2022/09/13 12:48:02;;;;;;;3.78;0.68;;;26.90;57.10;;;;;;4960632;28;20054;-72
2022/09/13 12:51:04;;;;;;;4.93;0.80;;;27.20;56.50;;;;;;4976467;28;20038;-73
2022/09/13 12:53:55;;;;;;;6.63;0.90;;;27.40;55.70;;;;;;4976304;28;20480;-73
2022/09/13 12:56:33;;;;;;;7.00;0.82;;;27.50;56.00;;;;;;4977238;28;20042;-73
2022/09/13 12:59:20;;;;;;;4.50;0.82;;;27.60;56.90;;;;;;4976408;28;20100;-73
2022/09/13 13:01:48;;;;;;;4.78;0.73;;;27.60;55.80;;;;;;4976619;28;20111;-73
2022/09/13 13:04:17;;;;;;;5.53;0.68;;;27.90;56.90;;;;;;4976263;28;20384;-73
2022/09/13 13:06:43;;;;;;;5.68;0.65;;;28.00;55.90;;;;;;4976188;28;20042;-73
2022/09/13 13:09:42;;;;;;;5.93;0.85;;;28.00;55.00;;;;;;4976433;28;20047;-73
2022/09/13 13:12:33;;;;;;;4.65;0.80;;;28.20;54.20;;;;;;4993634;28;20560;-73